createdAt,value
2023-01-05T00:01:45.177Z,63.60
2023-01-05T00:04:14.645Z,63.20
2023-01-05T00:06:43.259Z,62.10
2023-01-05T00:09:14.400Z,62.00
2023-01-05T00:12:00.233Z,62.50
2023-01-05T00:14:47.932Z,62.60
2023-01-05T00:17:35.615Z,63.50
2023-01-05T00:20:23.911Z,62.80
2023-01-05T00:22:53.452Z,61.80
2023-01-05T00:25:23.650Z,60.60
2023-01-05T00:27:55.773Z,60.90
2023-01-05T00:30:25.708Z,61.20
2023-01-05T00:32:56.725Z,62.10
2023-01-05T00:35:26.482Z,61.30
2023-01-05T00:37:55.546Z,60.90
2023-01-05T00:40:24.086Z,62.00
2023-01-05T00:42:52.339Z,61.50
2023-01-05T00:45:21.880Z,61.50
2023-01-05T00:47:51.696Z,61.20
2023-01-05T00:50:20.583Z,61.30
2023-01-05T00:52:50.412Z,61.70
2023-01-05T00:55:18.565Z,61.10
2023-01-05T00:57:46.605Z,61.80
2023-01-05T01:00:17.399Z,62.10
2023-01-05T01:02:45.872Z,62.50
2023-01-05T01:05:14.806Z,62.60
2023-01-05T01:07:42.879Z,62.80
2023-01-05T01:10:13.083Z,63.20
2023-01-05T01:15:10.383Z,62.20
2023-01-05T01:17:38.337Z,62.00
2023-01-05T01:20:07.719Z,61.70
2023-01-05T01:22:35.640Z,62.40
2023-01-05T01:25:03.530Z,63.40
2023-01-05T01:27:33.385Z,63.40
2023-01-05T01:30:02.407Z,63.00
2023-01-05T01:32:30.326Z,62.40
2023-01-05T01:34:58.229Z,62.70
2023-01-05T01:37:26.199Z,62.00
2023-01-05T01:39:58.882Z,61.20
2023-01-05T01:42:27.391Z,61.60
2023-01-05T01:44:59.298Z,61.70
2023-01-05T01:47:37.632Z,62.20
2023-01-05T01:50:11.394Z,63.00
2023-01-05T01:52:41.497Z,63.10
2023-01-05T01:55:11.356Z,63.40
2023-01-05T01:57:40.560Z,62.30
2023-01-05T02:00:14.558Z,60.80
2023-01-05T02:02:47.044Z,61.00
2023-01-05T02:05:19.067Z,61.30
2023-01-05T02:07:49.081Z,62.70
2023-01-05T02:10:20.572Z,62.80
2023-01-05T02:13:02.673Z,62.10
2023-01-05T02:15:41.581Z,62.20
2023-01-05T02:18:34.857Z,61.80
2023-01-05T02:21:17.515Z,62.60
2023-01-05T02:24:27.665Z,61.40
2023-01-05T02:27:36.979Z,61.80
2023-01-05T02:30:44.158Z,61.50
2023-01-05T02:33:25.723Z,62.30
2023-01-05T02:36:03.231Z,63.70
2023-01-05T02:38:38.581Z,63.80
2023-01-05T02:41:12.294Z,63.60
2023-01-05T02:43:41.901Z,63.60
2023-01-05T02:46:10.137Z,63.50
2023-01-05T02:48:40.694Z,62.90
2023-01-05T02:51:13.715Z,61.80
2023-01-05T02:53:48.232Z,60.90
2023-01-05T02:56:25.309Z,60.50
2023-01-05T02:58:57.445Z,60.00
2023-01-05T03:01:29.155Z,59.60
2023-01-05T03:04:02.258Z,59.10
2023-01-05T03:06:35.059Z,58.70
2023-01-05T03:09:06.944Z,58.00
2023-01-05T03:12:06.763Z,58.20
2023-01-05T03:14:43.033Z,57.90
2023-01-05T03:17:14.315Z,58.60
2023-01-05T03:19:51.766Z,59.00
2023-01-05T03:22:42.702Z,59.20
2023-01-05T03:25:31.075Z,58.20
2023-01-05T03:28:21.135Z,57.80
2023-01-05T03:31:15.416Z,58.40
2023-01-05T03:34:07.155Z,60.00
2023-01-05T03:36:51.160Z,59.00
2023-01-05T03:39:20.925Z,57.70
2023-01-05T03:41:49.954Z,58.50
2023-01-05T03:44:19.894Z,58.00
2023-01-05T03:46:48.163Z,59.60
2023-01-05T03:49:17.915Z,59.80
2023-01-05T03:51:47.798Z,59.10
2023-01-05T03:54:15.816Z,58.40
2023-01-05T03:56:45.865Z,58.90
2023-01-05T03:59:14.962Z,59.50
2023-01-05T04:01:44.212Z,60.20
2023-01-05T04:04:15.088Z,60.50
2023-01-05T04:06:43.105Z,60.10
2023-01-05T04:09:13.812Z,60.50
2023-01-05T04:11:44.445Z,60.40
2023-01-05T04:14:12.438Z,61.50
2023-01-05T04:16:40.879Z,62.50
2023-01-05T04:19:15.387Z,61.10
2023-01-05T04:21:44.446Z,60.00
2023-01-05T04:24:15.148Z,58.80
2023-01-05T04:26:45.665Z,58.80
2023-01-05T04:29:14.316Z,59.20
2023-01-05T04:31:45.700Z,59.90
2023-01-05T04:34:14.610Z,59.80
2023-01-05T04:36:44.258Z,60.20
2023-01-05T04:39:18.293Z,60.50
2023-01-05T04:41:48.593Z,60.20
2023-01-05T04:44:19.805Z,60.40
2023-01-05T04:46:49.535Z,60.50
2023-01-05T04:49:18.255Z,60.80
2023-01-05T04:51:50.425Z,61.30
2023-01-05T04:54:21.843Z,61.60
2023-01-05T04:56:49.821Z,61.80
2023-01-05T04:59:18.053Z,60.50
2023-01-05T05:01:46.460Z,62.70
2023-01-05T05:04:16.496Z,62.70
2023-01-05T05:06:48.304Z,63.50
2023-01-05T05:09:17.384Z,63.00
2023-01-05T05:11:48.142Z,63.00
2023-01-05T05:14:16.372Z,63.10
2023-01-05T05:16:45.151Z,61.90
2023-01-05T05:19:13.263Z,61.10
2023-01-05T05:21:41.316Z,62.00
2023-01-05T05:24:10.458Z,62.40
2023-01-05T05:26:41.830Z,62.40
2023-01-05T05:29:11.109Z,62.00
2023-01-05T05:31:39.176Z,61.70
2023-01-05T05:34:07.185Z,61.50
2023-01-05T05:36:36.144Z,61.30
2023-01-05T05:39:04.124Z,62.20
2023-01-05T05:41:32.307Z,61.30
2023-01-05T05:44:02.614Z,60.40
2023-01-05T05:46:32.285Z,61.00
2023-01-05T05:49:01.251Z,60.50
2023-01-05T05:51:29.303Z,59.30
2023-01-05T05:53:57.213Z,58.40
2023-01-05T05:56:25.136Z,57.90
2023-01-05T05:58:59.000Z,59.00
2023-01-05T06:01:29.334Z,58.70
2023-01-05T06:03:58.767Z,59.80
2023-01-05T06:06:27.068Z,59.50
2023-01-05T06:08:54.971Z,59.80
2023-01-05T06:11:23.119Z,59.50
2023-01-05T06:13:51.121Z,60.00
2023-01-05T06:16:19.059Z,59.70
2023-01-05T06:18:48.436Z,61.20
2023-01-05T06:21:17.699Z,62.60
2023-01-05T06:23:45.718Z,62.90
2023-01-05T06:26:13.622Z,63.30
2023-01-05T06:28:41.558Z,64.50
2023-01-05T06:31:09.602Z,65.60
2023-01-05T06:33:37.631Z,65.60
2023-01-05T06:36:06.137Z,65.40
2023-01-05T06:38:35.413Z,63.50
2023-01-05T06:41:04.595Z,59.60
2023-01-05T06:43:32.567Z,56.30
2023-01-05T06:46:00.603Z,55.60
2023-01-05T06:48:28.568Z,53.10
2023-01-05T06:50:56.544Z,52.90
2023-01-05T06:53:24.514Z,51.50
2023-01-05T06:55:53.769Z,50.60
2023-01-05T06:58:21.709Z,51.40
2023-01-05T07:00:49.760Z,50.70
2023-01-05T07:03:17.742Z,49.70
2023-01-05T07:05:45.697Z,49.00
2023-01-05T07:08:13.640Z,48.40
2023-01-05T07:10:41.901Z,48.70
2023-01-05T07:13:11.138Z,49.60
2023-01-05T07:15:39.068Z,49.80
2023-01-05T07:18:09.485Z,53.20
2023-01-05T07:20:38.248Z,54.80
2023-01-05T07:23:06.161Z,56.00
2023-01-05T07:25:34.127Z,58.10
2023-01-05T07:28:02.047Z,59.00
2023-01-05T07:30:31.418Z,60.10
2023-01-05T07:32:59.848Z,61.80
2023-01-05T07:35:28.159Z,63.10
2023-01-05T07:37:57.374Z,63.40
2023-01-05T07:40:25.343Z,62.70
2023-01-05T07:42:53.930Z,62.70
2023-01-05T07:45:25.437Z,63.90
2023-01-05T07:47:54.752Z,64.30
2023-01-05T07:50:22.850Z,64.20
2023-01-05T07:52:50.777Z,65.20
2023-01-05T07:55:18.697Z,65.80
2023-01-05T07:57:47.443Z,66.70
2023-01-05T08:00:16.177Z,66.20
2023-01-05T08:02:46.457Z,66.60
2023-01-05T08:05:15.799Z,66.40
2023-01-05T08:07:43.794Z,65.40
2023-01-05T08:10:29.787Z,65.10
2023-01-05T08:13:20.191Z,63.30
2023-01-05T08:15:51.399Z,63.60
2023-01-05T08:18:20.145Z,63.20
2023-01-05T08:20:53.833Z,65.30
2023-01-05T08:23:26.018Z,66.30
2023-01-05T08:25:55.111Z,67.80
2023-01-05T08:28:23.568Z,69.40
2023-01-05T08:30:51.502Z,67.40
2023-01-05T08:33:19.662Z,68.00
2023-01-05T08:35:47.599Z,67.70
2023-01-05T08:38:16.866Z,67.70
2023-01-05T08:40:44.785Z,67.50
2023-01-05T08:43:12.941Z,68.40
2023-01-05T08:45:41.065Z,67.20
2023-01-05T08:48:09.201Z,66.60
2023-01-05T08:50:38.402Z,66.50
2023-01-05T08:53:06.546Z,66.50
2023-01-05T08:55:35.852Z,66.20
2023-01-05T08:58:06.644Z,66.50
2023-01-05T09:00:35.848Z,66.70
2023-01-05T09:03:03.974Z,66.90
2023-01-05T09:05:31.958Z,65.80
2023-01-05T09:07:59.878Z,65.40
2023-01-05T09:10:27.789Z,67.00
2023-01-05T09:12:57.027Z,64.50
2023-01-05T09:15:24.942Z,64.20
2023-01-05T09:17:52.976Z,63.80
2023-01-05T09:20:20.940Z,64.00
2023-01-05T09:22:48.930Z,64.10
2023-01-05T09:25:17.034Z,64.30
2023-01-05T09:27:44.917Z,64.70
2023-01-05T09:30:21.273Z,64.80
2023-01-05T09:32:49.299Z,64.70
2023-01-05T09:35:17.366Z,64.30
2023-01-05T09:37:45.330Z,63.10
2023-01-05T09:40:14.414Z,63.20
2023-01-05T09:42:46.755Z,63.60
2023-01-05T09:45:24.628Z,65.00
2023-01-05T09:47:56.678Z,64.90
2023-01-05T09:50:28.711Z,64.40
2023-01-05T09:53:00.107Z,64.70
2023-01-05T09:55:31.398Z,65.50
2023-01-05T09:58:02.600Z,65.60
2023-01-05T10:00:32.248Z,66.00
2023-01-05T10:03:04.630Z,65.60
2023-01-05T10:05:35.012Z,66.70
2023-01-05T10:08:08.022Z,64.70
2023-01-05T10:10:45.666Z,65.20
2023-01-05T10:13:24.997Z,65.40
2023-01-05T10:15:55.970Z,65.70
2023-01-05T10:18:26.937Z,65.70
2023-01-05T10:21:07.378Z,64.60
2023-01-05T10:23:55.941Z,64.80
2023-01-05T10:26:28.075Z,64.70
2023-01-05T10:29:01.033Z,63.00
2023-01-05T10:31:42.899Z,62.60
2023-01-05T10:34:22.168Z,61.50
2023-01-05T10:37:09.510Z,61.90
2023-01-05T10:39:56.504Z,62.50
2023-01-05T10:42:43.444Z,62.40
2023-01-05T10:45:13.852Z,61.40
2023-01-05T10:47:45.263Z,61.20
2023-01-05T10:50:32.043Z,60.20
2023-01-05T10:53:00.599Z,60.20
2023-01-05T10:55:31.057Z,60.30
2023-01-05T10:58:01.341Z,61.90
2023-01-05T11:00:42.638Z,60.60
2023-01-05T11:03:15.663Z,60.60
2023-01-05T11:05:45.292Z,60.70
2023-01-05T11:08:17.653Z,60.00
2023-01-05T11:10:52.043Z,60.20
2023-01-05T11:13:28.197Z,61.00
2023-01-05T11:16:03.288Z,60.70
2023-01-05T11:18:37.041Z,60.80
2023-01-05T11:21:11.483Z,60.70
2023-01-05T11:23:41.800Z,61.20
2023-01-05T11:26:21.700Z,60.90
2023-01-05T11:29:06.545Z,60.20
2023-01-05T11:31:37.368Z,60.90
2023-01-05T11:34:10.545Z,61.10
2023-01-05T11:36:39.300Z,61.50
2023-01-05T11:39:07.804Z,60.80
2023-01-05T11:41:37.458Z,61.10
2023-01-05T11:44:06.654Z,61.30
2023-01-05T11:46:44.737Z,60.10
2023-01-05T11:49:19.498Z,59.80
2023-01-05T11:51:47.445Z,60.90
2023-01-05T11:54:33.416Z,61.00
2023-01-05T11:57:16.268Z,61.20
2023-01-05T11:59:45.453Z,60.90
2023-01-05T12:02:40.377Z,61.50
2023-01-05T12:05:29.186Z,62.20
2023-01-05T12:08:00.893Z,60.70
2023-01-05T12:10:57.988Z,60.10
2023-01-05T12:13:48.857Z,61.10
2023-01-05T12:16:38.519Z,60.60
2023-01-05T12:19:21.878Z,59.80
2023-01-05T12:22:05.321Z,60.20
2023-01-05T12:24:43.348Z,60.70
2023-01-05T12:27:29.163Z,62.00
2023-01-05T12:32:33.990Z,61.80
2023-01-05T12:36:42.257Z,59.60
2023-01-05T12:39:33.224Z,60.90
2023-01-05T12:42:29.319Z,62.20
2023-01-05T12:45:18.549Z,62.60
2023-01-05T12:47:55.483Z,63.20
2023-01-05T12:50:29.580Z,64.60
2023-01-05T12:53:02.281Z,64.70
2023-01-05T12:55:36.825Z,63.40
2023-01-05T12:58:10.360Z,62.10
2023-01-05T13:00:45.789Z,62.10
2023-01-05T13:03:23.411Z,62.10
2023-01-05T13:06:02.271Z,61.00
2023-01-05T13:08:38.536Z,61.20
2023-01-05T13:11:15.618Z,60.60
2023-01-05T13:13:47.851Z,59.20
2023-01-05T13:16:21.484Z,59.10
2023-01-05T13:18:54.202Z,58.50
2023-01-05T13:21:26.465Z,58.20
2023-01-05T13:23:57.767Z,58.80
2023-01-05T13:26:28.019Z,59.50
2023-01-05T13:29:02.594Z,58.70
2023-01-05T13:31:59.060Z,57.70
2023-01-05T13:34:45.122Z,54.50
2023-01-05T13:37:42.111Z,53.70
2023-01-05T13:40:31.079Z,56.50
2023-01-05T13:43:19.080Z,58.60
2023-01-05T13:46:12.002Z,61.30
2023-01-05T13:49:08.094Z,63.60
2023-01-05T13:51:54.588Z,64.50
2023-01-05T13:54:43.648Z,63.70
2023-01-05T13:57:27.835Z,64.50
2023-01-05T14:00:11.790Z,68.10
2023-01-05T14:02:43.684Z,68.70
2023-01-05T14:05:24.468Z,68.10
2023-01-05T14:07:53.412Z,68.10
2023-01-05T14:10:24.465Z,67.50
2023-01-05T14:12:55.047Z,66.80
2023-01-05T14:15:43.803Z,66.90
2023-01-05T14:18:12.452Z,67.10
2023-01-05T14:20:44.639Z,66.70
2023-01-05T14:23:51.914Z,65.20
2023-01-05T14:27:06.984Z,64.20
2023-01-05T14:30:04.007Z,63.80
2023-01-05T14:32:36.561Z,61.70
2023-01-05T14:35:18.181Z,60.60
2023-01-05T14:37:53.980Z,59.40
2023-01-05T14:40:33.998Z,58.90
2023-01-05T14:43:05.206Z,60.30
2023-01-05T14:45:36.559Z,62.20
2023-01-05T14:48:09.691Z,63.40
2023-01-05T14:50:40.269Z,64.10
2023-01-05T14:53:14.358Z,64.20
2023-01-05T14:56:15.852Z,62.70
2023-01-05T14:59:10.289Z,61.70
2023-01-05T15:01:44.712Z,61.30
2023-01-05T15:04:18.604Z,62.00
2023-01-05T15:07:06.650Z,60.90
2023-01-05T15:09:47.419Z,59.30
2023-01-05T15:12:37.516Z,58.20
2023-01-05T15:15:24.879Z,58.40
2023-01-05T15:18:12.231Z,58.60
2023-01-05T15:21:06.117Z,59.00
2023-01-05T15:23:56.248Z,57.30
2023-01-05T15:26:49.193Z,58.00
2023-01-05T15:29:40.869Z,58.70
2023-01-05T15:32:13.361Z,59.40
2023-01-05T15:34:45.533Z,59.80
2023-01-05T15:37:21.401Z,59.70
2023-01-05T15:39:51.024Z,59.40
2023-01-05T15:42:24.368Z,57.90
2023-01-05T15:44:54.587Z,58.10
2023-01-05T15:47:25.900Z,58.00
2023-01-05T15:49:58.321Z,58.20
2023-01-05T15:52:33.194Z,58.80
2023-01-05T15:55:14.908Z,59.30
2023-01-05T15:57:43.407Z,58.90
2023-01-05T16:00:18.791Z,58.50
2023-01-05T16:02:46.793Z,57.60
2023-01-05T16:05:16.887Z,58.50
2023-01-05T16:07:52.061Z,58.50
2023-01-05T16:10:22.376Z,58.30
2023-01-05T16:12:54.298Z,59.00
2023-01-05T16:15:24.749Z,58.70
2023-01-05T16:17:56.838Z,58.70
2023-01-05T16:20:26.750Z,60.10
2023-01-05T16:23:08.237Z,60.70
2023-01-05T16:25:42.472Z,62.10
2023-01-05T16:28:17.317Z,61.80
2023-01-05T16:30:46.726Z,60.40
2023-01-05T16:33:40.216Z,59.70
2023-01-05T16:36:18.511Z,60.50
2023-01-05T16:38:48.107Z,61.50
2023-01-05T16:41:22.717Z,62.50
2023-01-05T16:43:56.620Z,63.80
2023-01-05T16:46:42.976Z,64.00
2023-01-05T16:49:32.839Z,65.20
2023-01-05T16:52:02.375Z,64.10
2023-01-05T16:54:39.796Z,62.50
2023-01-05T16:57:41.372Z,62.20
2023-01-05T17:00:34.859Z,63.30
2023-01-05T17:03:04.385Z,61.80
2023-01-05T17:05:38.507Z,61.50
2023-01-05T17:08:17.904Z,60.50
2023-01-05T17:10:47.602Z,60.20
2023-01-05T17:13:20.759Z,60.10
2023-01-05T17:15:50.488Z,61.30
2023-01-05T17:20:51.717Z,62.30
2023-01-05T17:23:23.177Z,62.20
2023-01-05T17:28:26.575Z,63.00
2023-01-05T17:30:54.808Z,62.20
2023-01-05T17:33:22.771Z,62.70
2023-01-05T17:35:51.040Z,63.10
2023-01-05T17:38:21.681Z,63.00
2023-01-05T17:40:50.265Z,61.70
2023-01-05T17:43:19.682Z,61.60
2023-01-05T17:45:48.189Z,60.90
2023-01-05T17:48:16.800Z,59.90
2023-01-05T17:50:45.753Z,60.00
2023-01-05T17:53:13.792Z,59.80
2023-01-05T17:55:42.776Z,60.50
2023-01-05T17:58:13.213Z,61.00
2023-01-05T18:03:22.303Z,61.40
2023-01-05T18:05:52.338Z,61.50
2023-01-05T18:08:20.892Z,61.30
2023-01-05T18:10:51.117Z,60.30
2023-01-05T18:13:22.628Z,59.50
2023-01-05T18:15:55.257Z,58.70
2023-01-05T18:18:24.091Z,57.60
2023-01-05T18:20:52.630Z,57.20
2023-01-05T18:23:21.584Z,57.60
2023-01-05T18:25:49.618Z,57.40
2023-01-05T18:28:18.006Z,56.70
2023-01-05T18:30:46.315Z,56.70
2023-01-05T18:33:17.783Z,56.90
2023-01-05T18:35:45.755Z,57.50
2023-01-05T18:38:13.830Z,57.70
2023-01-05T18:40:42.012Z,58.80
2023-01-05T18:43:10.001Z,58.90
2023-01-05T18:45:39.967Z,58.60
2023-01-05T18:48:08.749Z,57.90
2023-01-05T18:50:44.589Z,57.30
2023-01-05T18:53:13.075Z,56.50
2023-01-05T18:55:42.588Z,55.80
2023-01-05T18:58:11.372Z,54.70
2023-01-05T19:00:40.175Z,55.80
2023-01-05T19:03:09.527Z,55.90
2023-01-05T19:05:41.695Z,57.00
2023-01-05T19:08:11.649Z,56.70
2023-01-05T19:10:39.570Z,57.10
2023-01-05T19:13:07.880Z,57.70
2023-01-05T19:15:37.020Z,57.80
2023-01-05T19:18:05.762Z,57.20
2023-01-05T19:20:33.960Z,57.10
2023-01-05T19:23:03.581Z,56.80
2023-01-05T19:25:32.347Z,57.00
2023-01-05T19:28:02.141Z,58.40
2023-01-05T19:30:33.710Z,59.10
2023-01-05T19:33:03.293Z,58.80
2023-01-05T19:35:31.333Z,58.30
2023-01-05T19:38:00.439Z,58.20
2023-01-05T19:40:30.305Z,58.30
2023-01-05T19:43:00.238Z,59.40
2023-01-05T19:45:28.157Z,60.20
2023-01-05T19:47:56.224Z,60.20
2023-01-05T19:50:24.302Z,59.20
2023-01-05T19:52:53.541Z,59.50
2023-01-05T19:55:21.465Z,59.60
2023-01-05T19:57:51.886Z,58.90
2023-01-05T20:00:22.084Z,58.90
2023-01-05T20:02:50.076Z,58.70
2023-01-05T20:05:18.226Z,58.40
2023-01-05T20:07:48.561Z,58.80
2023-01-05T20:10:16.599Z,59.20
2023-01-05T20:12:44.558Z,59.70
2023-01-05T20:15:15.261Z,60.50
2023-01-05T20:17:45.342Z,61.40
2023-01-05T20:20:14.133Z,59.80
2023-01-05T20:22:42.165Z,59.90
2023-01-05T20:25:10.923Z,60.20
2023-01-05T20:27:40.753Z,58.80
2023-01-05T20:30:09.957Z,57.70
2023-01-05T20:32:40.283Z,57.70
2023-01-05T20:35:08.669Z,58.40
2023-01-05T20:37:36.580Z,59.40
2023-01-05T20:40:05.938Z,58.70
2023-01-05T20:42:34.015Z,59.90
2023-01-05T20:45:03.684Z,61.70
2023-01-05T20:47:46.511Z,62.20
2023-01-05T20:50:16.480Z,62.60
2023-01-05T20:52:47.544Z,62.40
2023-01-05T20:55:17.819Z,61.90
2023-01-05T20:57:47.052Z,63.00
2023-01-05T21:00:16.875Z,64.00
2023-01-05T21:02:45.351Z,63.10
2023-01-05T21:05:13.639Z,61.90
2023-01-05T21:07:43.252Z,59.60
2023-01-05T21:10:11.501Z,58.90
2023-01-05T21:12:39.458Z,58.50
2023-01-05T21:15:08.624Z,58.20
2023-01-05T21:17:36.596Z,58.30
2023-01-05T21:20:05.060Z,58.90
2023-01-05T21:22:32.995Z,59.80
2023-01-05T21:25:02.498Z,59.60
2023-01-05T21:27:31.702Z,58.50
2023-01-05T21:29:59.653Z,58.20
2023-01-05T21:32:27.615Z,57.20
2023-01-05T21:34:55.556Z,57.30
2023-01-05T21:37:23.459Z,57.40
2023-01-05T21:39:53.791Z,57.50
2023-01-05T21:42:44.376Z,57.90
2023-01-05T21:45:13.800Z,58.00
2023-01-05T21:47:41.930Z,58.10
2023-01-05T21:50:13.807Z,58.00
2023-01-05T21:53:01.464Z,58.10
2023-01-05T21:55:47.200Z,58.40
2023-01-05T21:58:16.493Z,57.40
2023-01-05T22:00:48.633Z,56.50
2023-01-05T22:03:16.607Z,57.20
2023-01-05T22:05:44.532Z,57.60
2023-01-05T22:08:12.463Z,57.70
2023-01-05T22:10:40.460Z,56.80
2023-01-05T22:13:08.700Z,56.40
2023-01-05T22:15:38.539Z,56.30
2023-01-05T22:18:06.834Z,56.50
2023-01-05T22:20:34.723Z,56.20
2023-01-05T22:23:02.851Z,56.30
2023-01-05T22:25:30.811Z,56.90
2023-01-05T22:27:58.740Z,56.20
2023-01-05T22:30:26.943Z,57.10
2023-01-05T22:32:56.366Z,56.30
2023-01-05T22:35:24.280Z,55.50
2023-01-05T22:37:53.242Z,55.10
2023-01-05T22:40:21.523Z,54.80
2023-01-05T22:42:49.563Z,54.80
2023-01-05T22:45:17.616Z,54.40
2023-01-05T22:47:45.536Z,53.50
2023-01-05T22:50:14.868Z,53.50
2023-01-05T22:52:42.886Z,53.50
2023-01-05T22:55:10.834Z,53.40
2023-01-05T22:57:38.743Z,54.40
2023-01-05T23:00:08.362Z,54.60
2023-01-05T23:02:36.335Z,54.30
2023-01-05T23:05:04.445Z,54.60
2023-01-05T23:07:33.876Z,54.10
2023-01-05T23:10:01.808Z,52.90
2023-01-05T23:12:31.867Z,53.00
2023-01-05T23:14:59.828Z,53.00
2023-01-05T23:17:27.747Z,53.90
2023-01-05T23:19:55.688Z,54.80
2023-01-05T23:22:23.685Z,54.60
2023-01-05T23:24:52.990Z,55.80
2023-01-05T23:27:21.206Z,56.00
2023-01-05T23:29:50.192Z,56.40
2023-01-05T23:32:18.106Z,55.90
2023-01-05T23:34:46.056Z,54.80
2023-01-05T23:37:13.948Z,53.70
2023-01-05T23:39:41.915Z,54.60
2023-01-05T23:42:31.205Z,55.60
2023-01-05T23:45:00.227Z,55.70
2023-01-05T23:47:28.147Z,55.70
2023-01-05T23:49:56.064Z,55.40
2023-01-05T23:52:26.285Z,55.40
2023-01-05T23:54:54.169Z,56.00
2023-01-05T23:57:23.957Z,56.70
2023-01-05T23:59:51.888Z,56.90
